createdAt,value
2023-03-17T00:01:53.874Z,81.84
2023-03-17T00:04:21.830Z,82.01
2023-03-17T00:06:49.098Z,81.95
2023-03-17T00:09:19.398Z,81.82
2023-03-17T00:11:47.427Z,81.95
2023-03-17T00:14:17.111Z,81.90
2023-03-17T00:16:46.107Z,82.07
2023-03-17T00:19:23.771Z,82.00
2023-03-17T00:21:52.585Z,81.68
2023-03-17T00:24:19.650Z,81.39
2023-03-17T00:26:46.654Z,81.07
2023-03-17T00:29:13.400Z,80.95
2023-03-17T00:31:40.496Z,80.91
2023-03-17T00:34:16.100Z,80.73
2023-03-17T00:36:43.959Z,80.73
2023-03-17T00:41:39.940Z,80.42
2023-03-17T00:44:06.656Z,80.44
2023-03-17T00:46:37.554Z,80.34
2023-03-17T00:49:19.068Z,80.46
2023-03-17T00:51:46.507Z,80.58
2023-03-17T00:54:15.255Z,80.44
2023-03-17T00:56:42.084Z,80.32
2023-03-17T00:59:34.797Z,79.78
2023-03-17T01:02:01.473Z,79.46
2023-03-17T01:04:29.035Z,79.63
2023-03-17T01:06:57.920Z,79.66
2023-03-17T01:09:25.660Z,79.75
2023-03-17T01:11:52.463Z,80.04
2023-03-17T01:14:19.050Z,79.92
2023-03-17T01:16:47.111Z,79.76
2023-03-17T01:19:14.779Z,79.65
2023-03-17T01:21:41.982Z,79.45
2023-03-17T01:24:08.897Z,79.26
2023-03-17T01:26:35.938Z,79.32
2023-03-17T01:29:04.291Z,79.58
2023-03-17T01:31:30.989Z,79.43
2023-03-17T01:34:05.647Z,79.25
2023-03-17T01:36:32.327Z,79.04
2023-03-17T01:38:59.950Z,78.89
2023-03-17T01:41:26.740Z,79.16
2023-03-17T01:43:53.965Z,79.08
2023-03-17T01:46:32.110Z,79.00
2023-03-17T01:49:06.222Z,78.84
2023-03-17T01:51:40.367Z,78.73
2023-03-17T01:54:16.547Z,78.65
2023-03-17T01:56:45.061Z,78.53
2023-03-17T01:59:16.053Z,78.65
2023-03-17T02:01:44.532Z,78.79
2023-03-17T02:04:11.540Z,78.83
2023-03-17T02:06:55.095Z,78.63
2023-03-17T02:09:28.705Z,78.50
2023-03-17T02:11:56.344Z,78.31
2023-03-17T02:14:23.368Z,78.26
2023-03-17T02:16:50.869Z,78.38
2023-03-17T02:19:18.776Z,78.71
2023-03-17T02:21:47.043Z,78.61
2023-03-17T02:24:27.621Z,78.70
2023-03-17T02:26:56.412Z,78.49
2023-03-17T02:29:30.119Z,78.44
2023-03-17T02:31:57.478Z,78.52
2023-03-17T02:34:24.119Z,78.63
2023-03-17T02:36:52.638Z,78.54
2023-03-17T02:39:19.412Z,78.57
2023-03-17T02:41:49.436Z,78.30
2023-03-17T02:44:16.506Z,78.00
2023-03-17T02:46:43.636Z,77.90
2023-03-17T02:49:11.325Z,77.81
2023-03-17T02:51:38.284Z,78.00
2023-03-17T02:54:05.250Z,78.06
2023-03-17T02:56:32.638Z,78.11
2023-03-17T02:59:01.958Z,78.04
2023-03-17T03:01:30.181Z,77.88
2023-03-17T03:03:57.666Z,77.78
2023-03-17T03:06:24.339Z,77.39
2023-03-17T03:08:51.178Z,77.49
2023-03-17T03:11:18.690Z,77.45
2023-03-17T03:13:46.022Z,77.50
2023-03-17T03:16:12.695Z,77.39
2023-03-17T03:18:40.785Z,77.26
2023-03-17T03:21:09.024Z,77.29
2023-03-17T03:23:35.615Z,77.06
2023-03-17T03:26:07.196Z,76.76
2023-03-17T03:28:35.835Z,76.81
2023-03-17T03:31:03.104Z,76.92
2023-03-17T03:33:31.179Z,77.05
2023-03-17T03:35:58.661Z,77.07
2023-03-17T03:38:26.879Z,77.00
2023-03-17T03:40:53.848Z,76.61
2023-03-17T03:43:23.736Z,76.37
2023-03-17T03:45:51.391Z,76.67
2023-03-17T03:48:18.357Z,76.80
2023-03-17T03:50:46.232Z,76.68
2023-03-17T03:53:14.716Z,76.65
2023-03-17T03:55:42.249Z,76.62
2023-03-17T03:58:12.109Z,76.50
2023-03-17T04:00:38.624Z,76.13
2023-03-17T04:03:06.121Z,76.10
2023-03-17T04:05:32.963Z,76.35
2023-03-17T04:08:01.729Z,76.40
2023-03-17T04:10:28.994Z,76.68
2023-03-17T04:12:55.863Z,76.53
2023-03-17T04:15:24.663Z,76.41
2023-03-17T04:17:51.434Z,76.49
2023-03-17T04:20:18.216Z,76.64
2023-03-17T04:22:46.491Z,76.47
2023-03-17T04:25:13.840Z,76.10
2023-03-17T04:27:41.845Z,76.30
2023-03-17T04:30:13.177Z,76.49
2023-03-17T04:32:41.152Z,76.62
2023-03-17T04:35:11.231Z,76.52
2023-03-17T04:37:38.693Z,76.53
2023-03-17T04:40:10.729Z,76.90
2023-03-17T04:42:38.595Z,77.03
2023-03-17T04:45:06.166Z,76.87
2023-03-17T04:47:33.932Z,76.57
2023-03-17T04:50:01.558Z,76.62
2023-03-17T04:52:28.520Z,76.77
2023-03-17T04:54:56.268Z,76.82
2023-03-17T04:57:24.342Z,76.73
2023-03-17T04:59:51.151Z,76.87
2023-03-17T05:02:18.253Z,76.84
2023-03-17T05:04:52.915Z,77.04
2023-03-17T05:07:20.276Z,76.86
2023-03-17T05:09:47.558Z,77.02
2023-03-17T05:12:15.932Z,77.01
2023-03-17T05:14:42.502Z,77.19
2023-03-17T05:17:10.348Z,77.38
2023-03-17T05:19:38.978Z,77.49
2023-03-17T05:22:05.998Z,77.68
2023-03-17T05:24:32.858Z,77.66
2023-03-17T05:27:00.439Z,77.69
2023-03-17T05:29:27.195Z,77.68
2023-03-17T05:31:54.145Z,77.83
2023-03-17T05:34:20.747Z,78.03
2023-03-17T05:36:47.405Z,78.12
2023-03-17T05:39:14.853Z,78.08
2023-03-17T05:41:42.040Z,78.26
2023-03-17T05:44:13.881Z,78.11
2023-03-17T05:46:43.440Z,78.41
2023-03-17T05:49:10.164Z,78.29
2023-03-17T05:51:38.983Z,78.36
2023-03-17T05:54:05.501Z,78.36
2023-03-17T05:56:34.124Z,78.58
2023-03-17T05:59:01.103Z,78.45
2023-03-17T06:01:31.898Z,78.23
2023-03-17T06:04:01.259Z,78.48
2023-03-17T06:06:28.215Z,78.69
2023-03-17T06:08:55.595Z,78.79
2023-03-17T06:11:22.267Z,78.85
2023-03-17T06:13:51.011Z,78.73
2023-03-17T06:16:17.735Z,78.81
2023-03-17T06:18:45.644Z,78.96
2023-03-17T06:21:12.944Z,79.01
2023-03-17T06:23:45.663Z,78.99
2023-03-17T06:26:18.177Z,79.04
2023-03-17T06:28:46.307Z,79.27
2023-03-17T06:31:13.065Z,79.28
2023-03-17T06:33:39.944Z,78.99
2023-03-17T06:36:07.550Z,79.02
2023-03-17T06:38:34.381Z,79.13
2023-03-17T06:41:01.849Z,79.22
2023-03-17T06:43:31.472Z,79.03
2023-03-17T06:46:06.603Z,79.07
2023-03-17T06:48:34.657Z,79.10
2023-03-17T06:51:02.022Z,79.06
2023-03-17T06:53:28.889Z,79.10
2023-03-17T06:55:55.757Z,78.94
2023-03-17T06:58:23.263Z,79.11
2023-03-17T07:00:53.438Z,79.06
2023-03-17T07:03:21.861Z,78.95
2023-03-17T07:05:49.440Z,78.89
2023-03-17T07:08:17.307Z,78.90
2023-03-17T07:10:45.316Z,78.88
2023-03-17T07:13:14.171Z,79.06
2023-03-17T07:15:41.338Z,78.75
2023-03-17T07:18:09.262Z,78.73
2023-03-17T07:20:37.620Z,78.58
2023-03-17T07:23:04.538Z,78.42
2023-03-17T07:25:32.081Z,78.51
2023-03-17T07:27:59.202Z,78.44
2023-03-17T07:30:28.004Z,78.42
2023-03-17T07:32:54.949Z,78.41
2023-03-17T07:35:22.863Z,78.51
2023-03-17T07:37:49.913Z,78.39
2023-03-17T07:40:18.197Z,78.04
2023-03-17T07:42:49.308Z,78.18
2023-03-17T07:45:16.162Z,78.01
2023-03-17T07:47:43.005Z,77.96
2023-03-17T07:50:10.462Z,78.12
2023-03-17T07:55:11.953Z,78.21
2023-03-17T07:57:39.118Z,77.88
2023-03-17T08:00:10.037Z,77.96
2023-03-17T08:02:40.464Z,78.05
2023-03-17T08:05:08.022Z,77.83
2023-03-17T08:07:37.158Z,77.86
2023-03-17T08:10:05.390Z,77.68
2023-03-17T08:12:32.712Z,77.60
2023-03-17T08:15:03.338Z,77.62
2023-03-17T08:17:31.480Z,77.65
2023-03-17T08:19:59.848Z,77.68
2023-03-17T08:22:32.964Z,77.61
2023-03-17T08:24:59.915Z,77.85
2023-03-17T08:27:26.845Z,78.12
2023-03-17T08:29:58.462Z,77.92
2023-03-17T08:32:26.400Z,77.71
2023-03-17T08:34:58.344Z,78.04
2023-03-17T08:37:26.420Z,77.91
2023-03-17T08:39:53.760Z,77.86
2023-03-17T08:42:21.037Z,77.61
2023-03-17T08:44:49.049Z,77.59
2023-03-17T08:47:25.265Z,77.47
2023-03-17T08:49:52.898Z,77.40
2023-03-17T08:52:20.012Z,77.40
2023-03-17T08:54:46.909Z,77.56
2023-03-17T08:57:15.686Z,77.32
2023-03-17T08:59:43.150Z,77.65
2023-03-17T09:02:14.314Z,77.72
2023-03-17T09:04:41.149Z,77.47
2023-03-17T09:07:10.045Z,77.39
2023-03-17T09:09:37.093Z,77.31
2023-03-17T09:12:05.563Z,77.37
2023-03-17T09:14:42.744Z,77.44
2023-03-17T09:17:10.813Z,77.27
2023-03-17T09:19:38.176Z,77.25
2023-03-17T09:22:05.428Z,77.00
2023-03-17T09:24:33.017Z,76.93
2023-03-17T09:27:05.723Z,77.09
2023-03-17T09:29:33.571Z,76.97
2023-03-17T09:32:01.003Z,76.89
2023-03-17T09:34:29.203Z,77.14
2023-03-17T09:36:56.534Z,77.19
2023-03-17T09:39:23.920Z,77.15
2023-03-17T09:41:58.239Z,77.11
2023-03-17T09:44:41.150Z,76.94
2023-03-17T09:47:17.764Z,76.92
2023-03-17T09:49:48.054Z,76.97
2023-03-17T09:52:18.920Z,77.02
2023-03-17T09:54:49.581Z,76.97
2023-03-17T09:57:20.655Z,77.07
2023-03-17T09:59:50.229Z,76.97
2023-03-17T10:02:27.966Z,76.70
2023-03-17T10:04:55.474Z,76.81
2023-03-17T10:07:39.131Z,76.79
2023-03-17T10:10:20.955Z,76.61
2023-03-17T10:13:07.926Z,76.52
2023-03-17T10:15:40.536Z,76.71
2023-03-17T10:18:09.605Z,76.51
2023-03-17T10:20:38.993Z,76.10
2023-03-17T10:23:06.957Z,76.10
2023-03-17T10:25:35.547Z,76.14
2023-03-17T10:28:23.028Z,76.00
2023-03-17T10:30:50.935Z,76.35
2023-03-17T10:33:18.160Z,76.20
2023-03-17T10:35:46.277Z,76.31
2023-03-17T10:38:20.363Z,76.15
2023-03-17T10:40:59.589Z,76.31
2023-03-17T10:43:30.526Z,76.20
2023-03-17T10:46:00.968Z,76.32
2023-03-17T10:48:28.722Z,76.48
2023-03-17T10:50:57.736Z,76.20
2023-03-17T10:53:27.956Z,76.25
2023-03-17T10:56:25.486Z,76.29
2023-03-17T10:58:54.398Z,75.98
2023-03-17T11:01:39.761Z,75.84
2023-03-17T11:04:33.717Z,75.78
2023-03-17T11:07:12.298Z,75.71
2023-03-17T11:09:38.984Z,75.83
2023-03-17T11:12:32.173Z,75.95
2023-03-17T11:15:09.571Z,76.14
2023-03-17T11:17:40.754Z,76.06
2023-03-17T11:20:41.678Z,75.81
2023-03-17T11:23:21.785Z,75.72
2023-03-17T11:26:04.753Z,75.64
2023-03-17T11:28:35.541Z,75.72
2023-03-17T11:31:09.943Z,75.63
2023-03-17T11:34:01.885Z,75.69
2023-03-17T11:36:35.584Z,75.95
2023-03-17T11:39:27.816Z,75.70
2023-03-17T11:42:42.414Z,75.86
2023-03-17T11:45:12.686Z,75.69
2023-03-17T11:48:07.675Z,75.80
2023-03-17T11:50:38.820Z,75.77
2023-03-17T11:53:31.165Z,76.09
2023-03-17T11:56:06.661Z,75.67
2023-03-17T11:58:47.770Z,75.75
2023-03-17T12:01:17.693Z,75.61
2023-03-17T12:03:49.624Z,75.71
2023-03-17T12:06:34.428Z,75.68
2023-03-17T12:09:10.615Z,75.69
2023-03-17T12:11:39.995Z,75.73
2023-03-17T12:14:31.953Z,75.63
2023-03-17T12:17:04.709Z,75.83
2023-03-17T12:20:09.978Z,76.04
2023-03-17T12:23:10.501Z,76.01
2023-03-17T12:25:51.380Z,76.04
2023-03-17T12:28:22.469Z,76.34
2023-03-17T12:31:04.018Z,76.29
2023-03-17T12:33:46.502Z,76.21
2023-03-17T12:36:14.815Z,76.44
2023-03-17T12:38:44.794Z,76.44
2023-03-17T12:41:56.172Z,76.44
2023-03-17T12:44:45.423Z,76.66
2023-03-17T12:47:42.907Z,76.70
2023-03-17T12:51:05.430Z,76.81
2023-03-17T12:53:35.113Z,76.97
2023-03-17T12:56:21.625Z,76.76
2023-03-17T12:58:50.550Z,76.82
2023-03-17T13:01:37.470Z,76.54
2023-03-17T13:04:26.552Z,76.41
2023-03-17T13:06:57.710Z,76.47
2023-03-17T13:09:31.848Z,76.52
2023-03-17T13:11:59.611Z,76.24
2023-03-17T13:14:42.705Z,76.42
2023-03-17T13:17:11.910Z,76.30
2023-03-17T13:19:48.088Z,76.37
2023-03-17T13:22:21.166Z,76.41
2023-03-17T13:24:53.270Z,76.34
2023-03-17T13:27:29.424Z,76.60
2023-03-17T13:30:21.819Z,76.72
2023-03-17T13:32:56.669Z,76.63
2023-03-17T13:35:47.278Z,76.99
2023-03-17T13:38:36.755Z,77.04
2023-03-17T13:41:06.286Z,76.85
2023-03-17T13:43:49.744Z,76.72
2023-03-17T13:46:33.366Z,76.89
2023-03-17T13:49:19.376Z,76.62
2023-03-17T13:52:00.399Z,76.84
2023-03-17T13:54:30.420Z,76.79
2023-03-17T13:57:26.009Z,76.82
2023-03-17T14:00:21.154Z,76.68
2023-03-17T14:02:49.872Z,76.55
2023-03-17T14:05:24.073Z,76.79
2023-03-17T14:08:00.664Z,76.59
2023-03-17T14:10:31.439Z,76.76
2023-03-17T14:13:31.009Z,76.71
2023-03-17T14:16:20.272Z,76.81
2023-03-17T14:18:58.678Z,76.88
2023-03-17T14:21:35.541Z,76.81
2023-03-17T14:24:17.753Z,76.88
2023-03-17T14:26:47.719Z,76.98
2023-03-17T14:29:15.216Z,77.21
2023-03-17T14:31:49.191Z,77.29
2023-03-17T14:34:17.010Z,77.19
2023-03-17T14:36:44.349Z,77.38
2023-03-17T14:39:22.615Z,77.40
2023-03-17T14:42:01.092Z,77.34
2023-03-17T14:44:34.834Z,77.10
2023-03-17T14:47:10.693Z,77.05
2023-03-17T14:49:39.354Z,77.12
2023-03-17T14:52:26.459Z,77.20
2023-03-17T14:54:54.919Z,77.31
2023-03-17T14:57:26.598Z,77.17
2023-03-17T15:00:22.033Z,77.19
2023-03-17T15:02:59.556Z,77.12
2023-03-17T15:05:37.680Z,77.08
2023-03-17T15:08:36.083Z,77.05
2023-03-17T15:11:04.341Z,77.29
2023-03-17T15:13:34.248Z,77.43
2023-03-17T15:16:15.957Z,77.51
2023-03-17T15:18:44.219Z,77.31
2023-03-17T15:21:34.483Z,77.13
2023-03-17T15:24:27.106Z,77.49
2023-03-17T15:27:20.726Z,77.33
2023-03-17T15:29:50.345Z,77.40
2023-03-17T15:32:20.274Z,77.34
2023-03-17T15:34:48.227Z,77.49
2023-03-17T15:37:23.633Z,77.55
2023-03-17T15:39:52.521Z,77.46
2023-03-17T15:42:21.198Z,77.19
2023-03-17T15:44:48.154Z,77.46
2023-03-17T15:47:16.756Z,77.78
2023-03-17T15:49:44.714Z,77.68
2023-03-17T15:52:24.770Z,77.65
2023-03-17T15:54:58.656Z,77.72
2023-03-17T15:57:26.634Z,77.65
2023-03-17T15:59:55.405Z,77.67
2023-03-17T16:02:33.285Z,77.65
2023-03-17T16:05:01.777Z,77.97
2023-03-17T16:07:30.295Z,78.13
2023-03-17T16:09:57.069Z,78.02
2023-03-17T16:12:24.837Z,77.99
2023-03-17T16:14:54.720Z,78.15
2023-03-17T16:17:28.874Z,78.19
2023-03-17T16:19:56.270Z,78.10
2023-03-17T16:22:39.089Z,78.03
2023-03-17T16:25:29.596Z,78.24
2023-03-17T16:27:59.396Z,78.40
2023-03-17T16:30:31.495Z,78.41
2023-03-17T16:33:11.796Z,78.38
2023-03-17T16:35:41.501Z,78.66
2023-03-17T16:38:11.488Z,78.42
2023-03-17T16:40:42.321Z,78.48
2023-03-17T16:43:32.342Z,78.39
2023-03-17T16:46:00.585Z,78.56
2023-03-17T16:48:30.500Z,78.70
2023-03-17T16:50:57.870Z,78.59
2023-03-17T16:53:24.976Z,78.53
2023-03-17T16:55:53.036Z,78.36
2023-03-17T16:58:25.950Z,78.38
2023-03-17T17:00:58.388Z,78.48
2023-03-17T17:03:26.109Z,78.47
2023-03-17T17:05:54.856Z,78.66
2023-03-17T17:08:22.257Z,78.62
2023-03-17T17:10:49.680Z,78.64
2023-03-17T17:13:17.688Z,78.69
2023-03-17T17:15:44.370Z,78.57
2023-03-17T17:18:16.101Z,78.41
2023-03-17T17:20:49.344Z,78.46
2023-03-17T17:23:21.386Z,78.51
2023-03-17T17:25:49.913Z,78.49
2023-03-17T17:28:22.133Z,78.51
2023-03-17T17:30:52.431Z,78.79
2023-03-17T17:33:26.289Z,78.68
2023-03-17T17:35:53.820Z,78.70
2023-03-17T17:38:28.079Z,78.55
2023-03-17T17:40:56.590Z,78.70
2023-03-17T17:43:24.350Z,78.72
2023-03-17T17:45:55.356Z,78.57
2023-03-17T17:48:23.802Z,78.89
2023-03-17T17:50:51.142Z,78.71
2023-03-17T17:53:18.896Z,78.61
2023-03-17T17:55:47.805Z,78.55
2023-03-17T17:58:17.750Z,78.57
2023-03-17T18:00:44.956Z,78.65
2023-03-17T18:03:11.590Z,78.74
2023-03-17T18:05:39.792Z,78.71
2023-03-17T18:08:06.774Z,78.88
2023-03-17T18:10:38.210Z,78.79
2023-03-17T18:13:05.060Z,78.41
2023-03-17T18:15:31.896Z,78.42
2023-03-17T18:18:03.740Z,78.66
2023-03-17T18:20:31.399Z,78.76
2023-03-17T18:22:58.472Z,78.69
2023-03-17T18:25:26.611Z,78.57
2023-03-17T18:27:55.808Z,78.49
2023-03-17T18:30:28.130Z,78.43
2023-03-17T18:32:57.880Z,78.03
2023-03-17T18:35:25.503Z,78.17
2023-03-17T18:37:53.284Z,78.19
2023-03-17T18:40:20.646Z,78.01
2023-03-17T18:42:47.426Z,78.12
2023-03-17T18:45:16.429Z,78.07
2023-03-17T18:47:44.623Z,78.25
2023-03-17T18:50:14.939Z,77.93
2023-03-17T18:52:43.427Z,78.04
2023-03-17T18:55:11.990Z,78.22
2023-03-17T18:57:39.217Z,78.53
2023-03-17T19:00:07.953Z,78.46
2023-03-17T19:02:38.749Z,78.34
2023-03-17T19:05:06.994Z,78.49
2023-03-17T19:07:35.041Z,78.39
2023-03-17T19:10:04.021Z,78.34
2023-03-17T19:12:31.380Z,78.15
2023-03-17T19:14:59.556Z,78.54
2023-03-17T19:17:28.154Z,78.56
2023-03-17T19:19:55.207Z,78.29
2023-03-17T19:22:23.190Z,78.24
2023-03-17T19:24:50.317Z,78.20
2023-03-17T19:27:17.531Z,78.27
2023-03-17T19:29:48.680Z,78.10
2023-03-17T19:32:16.618Z,77.88
2023-03-17T19:34:43.366Z,78.25
2023-03-17T19:37:10.488Z,78.15
2023-03-17T19:39:44.341Z,78.16
2023-03-17T19:42:12.058Z,78.10
2023-03-17T19:44:40.135Z,78.20
2023-03-17T19:47:12.319Z,78.08
2023-03-17T19:49:39.571Z,78.03
2023-03-17T19:52:07.687Z,77.70
2023-03-17T19:54:37.672Z,78.02
2023-03-17T19:57:05.303Z,78.10
2023-03-17T19:59:32.888Z,78.14
2023-03-17T20:02:00.302Z,77.84
2023-03-17T20:04:27.304Z,78.12
2023-03-17T20:06:57.340Z,78.13
2023-03-17T20:09:26.498Z,78.09
2023-03-17T20:12:38.308Z,77.90
2023-03-17T20:15:07.842Z,78.03
2023-03-17T20:17:36.867Z,77.99
2023-03-17T20:20:10.783Z,77.96
2023-03-17T20:22:40.422Z,77.75
2023-03-17T20:25:10.394Z,77.87
2023-03-17T20:27:40.481Z,77.74
2023-03-17T20:30:12.415Z,77.58
2023-03-17T20:32:40.702Z,77.47
2023-03-17T20:35:09.711Z,77.51
2023-03-17T20:37:38.835Z,77.67
2023-03-17T20:40:13.837Z,77.68
2023-03-17T20:42:42.392Z,77.57
2023-03-17T20:45:10.431Z,77.50
2023-03-17T20:47:41.628Z,77.61
2023-03-17T20:50:10.244Z,77.55
2023-03-17T20:52:39.853Z,77.40
2023-03-17T20:55:09.597Z,77.65
2023-03-17T20:57:38.156Z,77.73
2023-03-17T21:00:10.429Z,77.71
2023-03-17T21:02:39.040Z,77.96
2023-03-17T21:05:08.501Z,78.14
2023-03-17T21:07:37.496Z,77.89
2023-03-17T21:10:06.155Z,77.78
2023-03-17T21:12:34.390Z,77.77
2023-03-17T21:15:03.800Z,77.83
2023-03-17T21:17:32.974Z,77.84
2023-03-17T21:20:03.406Z,77.82
2023-03-17T21:22:34.524Z,77.84
2023-03-17T21:25:05.424Z,77.76
2023-03-17T21:27:37.095Z,77.60
2023-03-17T21:30:12.376Z,77.49
2023-03-17T21:32:45.113Z,77.60
2023-03-17T21:35:13.590Z,77.41
2023-03-17T21:37:41.807Z,77.80
2023-03-17T21:40:12.800Z,77.73
2023-03-17T21:42:42.024Z,77.73
2023-03-17T21:45:10.802Z,77.89
2023-03-17T21:47:41.945Z,78.00
2023-03-17T21:50:11.183Z,77.92
2023-03-17T21:52:41.134Z,77.99
2023-03-17T21:55:10.424Z,77.94
2023-03-17T21:57:40.295Z,77.91
2023-03-17T22:00:09.759Z,77.88
2023-03-17T22:02:46.325Z,78.04
2023-03-17T22:05:14.569Z,77.90
2023-03-17T22:07:43.895Z,77.75
2023-03-17T22:10:11.994Z,77.72
2023-03-17T22:12:40.321Z,77.89
2023-03-17T22:15:10.497Z,77.98
2023-03-17T22:17:39.816Z,78.11
2023-03-17T22:20:09.224Z,77.92
2023-03-17T22:22:38.589Z,77.90
2023-03-17T22:25:07.403Z,78.26
2023-03-17T22:27:35.757Z,77.67
2023-03-17T22:30:06.786Z,77.56
2023-03-17T22:32:36.166Z,77.85
2023-03-17T22:35:08.884Z,78.14
2023-03-17T22:37:36.839Z,78.01
2023-03-17T22:40:06.500Z,78.14
2023-03-17T22:42:37.369Z,77.92
2023-03-17T22:45:06.432Z,77.67
2023-03-17T22:47:35.057Z,77.70
2023-03-17T22:50:03.127Z,77.61
2023-03-17T22:52:32.926Z,77.72
2023-03-17T22:55:02.673Z,78.12
2023-03-17T22:57:30.975Z,77.95
2023-03-17T22:59:59.283Z,77.67
2023-03-17T23:02:27.430Z,77.60
2023-03-17T23:04:55.415Z,77.37
2023-03-17T23:07:24.366Z,77.14
2023-03-17T23:09:52.304Z,77.46
2023-03-17T23:12:24.630Z,77.13
2023-03-17T23:14:53.219Z,77.27
2023-03-17T23:17:21.879Z,77.26
2023-03-17T23:19:49.954Z,77.31
2023-03-17T23:22:18.316Z,77.22
2023-03-17T23:24:47.321Z,77.30
2023-03-17T23:27:15.760Z,77.16
2023-03-17T23:29:44.822Z,77.31
2023-03-17T23:32:15.616Z,77.21
2023-03-17T23:34:45.088Z,77.24
2023-03-17T23:37:13.145Z,77.31
2023-03-17T23:39:41.837Z,77.37
2023-03-17T23:42:11.323Z,77.44
2023-03-17T23:44:41.893Z,77.10
2023-03-17T23:47:10.604Z,77.05
2023-03-17T23:49:39.201Z,77.41
2023-03-17T23:52:09.242Z,77.23
2023-03-17T23:54:38.847Z,77.38
2023-03-17T23:57:08.092Z,77.19
2023-03-17T23:59:36.165Z,77.36
